Terminal Aerodrome Forecast
Issued by NWS Knoxville/Tri Cities, TN

Home | Current Version | Previous Version | Text Only | Print | Product List | Glossary On
Versions: 1 2 3 4 5 6 7 8 9 10 11 12 13 14 15 16 17 18 19 20 21 22 23 24 25 26 27 28 29 30
000
FTUS44 KMRX 260532
TAFTRI
TAF
KTRI 260532Z 2606/2706 00000KT P6SM FEW060
      TEMPO 2608/2612 4SM BR FEW010 BKN060
     FM261400 27004KT P6SM FEW250
     FM262000 29006KT P6SM SCT060
     FM270100 00000KT P6SM SCT150=

USA.gov is the U.S. government's official web portal to all federal, state and local government web resources and services.